Portada
METAR-TAF:

METAR-TAF

Aeroports :

Guilin, Xina

latitud: 25-20N, longitud: 110-18E, altitud: 166 m

Observació

L'informe es va fer fa 20 minuts, a les 15:00 UTC
Vent 4 kt del Nord/Nord-Est, variant entre Nord i Nord-Est
Temperatura 17°C
Humitat 77%
Pressió 1023 hPa
Visibilitat: 7000 m
Escasses núvols a una alçada de 2000 ft
Cel cobert a una alçada de 4000 ft

METAR: ZGKL 191500Z 02002MPS 350V050 7000 FEW020 OVC040 17/13 Q1023 NOSIG

Hora: 23:20 (15:20 UTC)

Pronòstic

L'informe es va fer fa 6 hores i 16 minuts, a les 09:04 UTC
Pronòstic vàlid del 19 a les 12 UTC al 20 a les 12 UTC
Vent 6 kt del Nord-Est
Visibilitat 10 km o més
Núvols disperses a una alçada de 3600 ft
Cel ennuvolat a una alçada de 6000 ft

TAF: ZGKL 190904Z 1912/2012 04003MPS 9999 SCT036 BKN060 TX22/2008Z TN15/1923Z

Observacions i pronòstics meteorològics de més de 4000 aeroports (METAR i TAF).

Les estacions disponibles són els punts grocs i vermells al mapa.

Posi el ratolí al punt desitjat per veure el nom de l'estació.

Feu clic per veure les observacions i els pronòstics meteorològics.

Per canviar el mapa: feu clic els botons verds amb una creu de color negre per apropar; al botó verd amb un guió per allunyar la imatge; o en les fletxes verdes per a mapes adjacents.


METAR-TAF: